Time;durP1;ratioP1;P1;durP2;ratioP2;P2;SDS_P1;SDS_P2;PMS_P1;PMS_P2;Temp;Humidity;BMP_temperature;BMP_pressure;BME280_temperature;BME280_humidity;BME280_pressure;Samples;Min_cycle;Max_cycle;Signal;HPM_P1;HPM_P2
2021/01/17 00:01:04;;;;;;;61.87;36.93;;;;;;;-1.07;88.77;101676.88;5097554;28;20066;-78
2021/01/17 00:03:29;;;;;;;69.28;38.25;;;;;;;-1.04;89.11;101673.94;5097245;28;20039;-79
2021/01/17 00:05:55;;;;;;;64.17;36.67;;;;;;;-1.07;88.67;101660.13;5074935;28;20020;-77
2021/01/17 00:08:22;;;;;;;64.75;37.42;;;;;;;-1.04;89.06;101657.19;5087332;28;20024;-76
2021/01/17 00:10:47;;;;;;;63.33;37.33;;;;;;;-1.03;88.75;101664.16;5091276;28;20429;-76
2021/01/17 00:13:14;;;;;;;63.90;37.63;;;;;;;-1.01;89.41;101664.88;5091721;28;20047;-77
2021/01/17 00:15:39;;;;;;;61.22;35.33;;;;;;;-1.00;89.47;101663.06;5089449;28;20103;-77
2021/01/17 00:18:06;;;;;;;65.37;37.17;;;;;;;-1.00;89.00;101665.72;5091770;28;20127;-77
2021/01/17 00:20:32;;;;;;;66.32;36.95;;;;;;;-1.02;88.55;101670.31;5088206;28;20073;-77
2021/01/17 00:23:03;;;;;;;66.72;38.28;;;;;;;-0.98;88.87;101667.25;5093173;28;20024;-77
2021/01/17 00:25:28;;;;;;;64.82;37.38;;;;;;;-0.97;88.70;101660.97;5088481;28;20410;-77
2021/01/17 00:27:55;;;;;;;62.22;38.92;;;;;;;-0.97;88.73;101658.34;5082185;28;20042;-76
2021/01/17 00:30:23;;;;;;;66.10;38.38;;;;;;;-0.96;89.11;101657.34;5076905;28;20304;-77
2021/01/17 00:32:54;;;;;;;62.03;36.83;;;;;;;-0.97;88.92;101655.69;5091867;28;20113;-77
2021/01/17 00:35:21;;;;;;;65.72;37.50;;;;;;;-0.99;89.33;101649.66;5084735;28;20045;-77
2021/01/17 00:37:51;;;;;;;66.72;39.25;;;;;;;-0.92;88.85;101653.44;5082181;28;20435;-77
2021/01/17 00:40:16;;;;;;;62.30;36.83;;;;;;;-0.94;88.39;101649.25;5095801;28;20023;-76
2021/01/17 00:42:46;;;;;;;69.20;37.50;;;;;;;-0.90;88.78;101656.78;5094805;28;20080;-77
2021/01/17 00:45:13;;;;;;;66.18;37.97;;;;;;;-0.92;89.45;101655.28;5095793;28;20298;-77
2021/01/17 00:47:42;;;;;;;63.70;36.55;;;;;;;-0.87;88.84;101651.22;5086438;28;20131;-77
2021/01/17 00:50:08;;;;;;;64.20;37.75;;;;;;;-0.89;89.34;101637.22;5090006;28;20027;-77
2021/01/17 00:52:33;;;;;;;64.05;37.53;;;;;;;-0.90;89.04;101635.56;5078165;28;20033;-77
2021/01/17 00:54:59;;;;;;;66.43;37.93;;;;;;;-0.89;88.61;101631.06;5080264;28;20031;-77
2021/01/17 00:57:26;;;;;;;62.30;36.80;;;;;;;-0.84;89.35;101636.81;5090968;28;20322;-77
2021/01/17 00:59:52;;;;;;;64.57;36.88;;;;;;;-0.88;89.46;101633.63;5077519;28;20020;-79
2021/01/17 01:02:17;;;;;;;69.43;37.60;;;;;;;-0.85;89.27;101635.97;5066868;28;20031;-78
2021/01/17 01:04:42;;;;;;;71.43;38.10;;;;;;;-0.84;89.04;101639.47;5092421;28;20035;-79
2021/01/17 01:07:08;;;;;;;68.67;37.23;;;;;;;-0.85;89.04;101638.63;5089290;28;20028;-78
2021/01/17 01:09:33;;;;;;;73.37;38.50;;;;;;;-0.84;89.27;101634.16;5083883;28;20029;-79
2021/01/17 01:11:58;;;;;;;69.87;38.27;;;;;;;-0.82;88.83;101629.56;5082038;28;20032;-77
2021/01/17 01:14:24;;;;;;;69.77;38.23;;;;;;;-0.80;89.66;101633.75;5087686;28;20485;-78
2021/01/17 01:16:49;;;;;;;72.27;39.17;;;;;;;-0.81;89.69;101634.72;5086502;28;20097;-78
2021/01/17 01:19:15;;;;;;;75.70;38.87;;;;;;;-0.82;89.12;101632.22;5090929;28;20020;-78
2021/01/17 01:21:40;;;;;;;71.03;40.53;;;;;;;-0.82;88.82;101632.22;5088177;28;20414;-78
2021/01/17 01:24:06;;;;;;;69.57;37.00;;;;;;;-0.83;89.68;101631.38;5082223;28;20281;-78
2021/01/17 01:26:39;;;;;;;76.97;40.03;;;;;;;-0.79;89.27;101638.06;5086075;28;20044;-72
2021/01/17 01:29:04;;;;;;;68.65;38.22;;;;;;;-0.77;89.93;101634.47;5078039;28;20012;-78
2021/01/17 01:31:31;;;;;;;74.22;38.17;;;;;;;-0.74;89.30;101634.19;5085593;28;20440;-78
2021/01/17 01:33:57;;;;;;;78.03;39.60;;;;;;;-0.76;89.19;101636.13;5081229;28;20111;-78
2021/01/17 01:36:28;;;;;;;78.95;41.45;;;;;;;-0.72;89.18;101633.06;5085403;28;20101;-78
2021/01/17 01:38:54;;;;;;;73.47;38.15;;;;;;;-0.72;90.41;101634.91;5080298;28;20028;-78
2021/01/17 01:41:20;;;;;;;79.47;41.90;;;;;;;-0.75;89.89;101630.69;5085538;28;20044;-79
2021/01/17 01:43:46;;;;;;;80.82;40.42;;;;;;;-0.73;90.33;101630.53;5077220;28;20133;-79
2021/01/17 01:46:16;;;;;;;;;;;;;;;-0.66;89.91;101631.69;5077417;28;20025;-79
2021/01/17 01:48:45;;;;;;;76.82;39.90;;;;;;;-0.71;90.43;101624.13;5082750;28;19909;-80
2021/01/17 01:51:15;;;;;;;84.35;40.67;;;;;;;-0.69;90.31;101621.31;5090942;28;20021;-81
2021/01/17 01:53:41;;;;;;;79.05;42.08;;;;;;;-0.71;90.23;101624.13;5092086;28;20028;-80
2021/01/17 01:56:07;;;;;;;85.38;41.90;;;;;;;-0.73;90.61;101619.91;5077023;28;20048;-80
2021/01/17 01:58:35;;;;;;;84.45;42.97;;;;;;;-0.73;90.12;101614.59;5090485;28;20024;-80
2021/01/17 02:01:01;;;;;;;87.35;43.03;;;;;;;-0.75;90.24;101603.28;5095691;28;20050;-80
2021/01/17 02:03:26;;;;;;;84.68;40.97;;;;;;;-0.75;90.77;101603.28;5095401;28;20101;-80
2021/01/17 02:05:52;;;;;;;85.10;42.20;;;;;;;-0.75;90.97;101601.47;5085003;28;20077;-81
2021/01/17 02:08:38;;;;;;;87.27;42.33;;;;;;;-0.75;91.09;101595.31;5095611;28;20020;-80
2021/01/17 02:11:23;;;;;;;85.75;42.67;;;;;;;-0.73;91.08;101602.19;5095605;28;20024;-81
2021/01/17 02:14:13;;;;;;;92.40;44.75;;;;;;;-0.73;90.69;101607.50;5095430;28;20024;-81
2021/01/17 02:16:40;;;;;;;94.18;41.25;;;;;;;-0.73;91.07;101606.63;5087998;28;20024;-80
2021/01/17 02:19:08;;;;;;;88.90;42.05;;;;;;;-0.72;90.81;101608.34;5088900;28;20040;-81
2021/01/17 02:21:37;;;;;;;84.95;41.05;;;;;;;-0.71;90.94;101610.84;5074474;28;20031;-80
2021/01/17 02:24:11;;;;;;;94.70;42.65;;;;;;;-0.70;90.93;101612.50;5068332;28;20046;-81
2021/01/17 02:26:41;;;;;;;82.75;41.47;;;;;;;-0.67;91.26;101614.06;5084416;28;20036;-81
2021/01/17 02:29:10;;;;;;;87.13;41.63;;;;;;;-0.65;90.91;101607.63;5084730;28;20050;-81
2021/01/17 02:31:39;;;;;;;78.63;39.42;;;;;;;-0.67;90.53;101608.75;5068414;28;20024;-81
2021/01/17 02:34:06;;;;;;;81.20;41.28;;;;;;;-0.66;90.64;101611.25;5080714;28;20051;-81
2021/01/17 02:36:40;;;;;;;79.45;39.92;;;;;;;-0.64;91.29;101600.50;5080509;28;20102;-81
2021/01/17 02:39:13;;;;;;;85.82;40.90;;;;;;;-0.65;90.75;101599.66;5080263;28;20029;-82
2021/01/17 02:41:57;;;;;;;86.72;43.00;;;;;;;-0.63;91.02;101594.22;5085922;28;20059;-81
2021/01/17 02:44:25;;;;;;;89.97;42.92;;;;;;;-0.66;91.10;101591.84;5085673;28;20054;-81
2021/01/17 02:46:50;;;;;;;91.40;42.67;;;;;;;-0.66;91.06;101597.16;5083394;28;20414;-82
2021/01/17 02:49:15;;;;;;;85.93;40.20;;;;;;;-0.67;91.42;101598.97;5082088;28;20089;-82
2021/01/17 02:51:41;;;;;;;85.63;41.33;;;;;;;-0.67;91.10;101603.44;5097452;28;20321;-81
2021/01/17 02:54:10;;;;;;;83.65;40.40;;;;;;;-0.61;90.82;101609.03;5087973;28;20100;-81
2021/01/17 02:56:41;;;;;;;93.45;42.03;;;;;;;-0.62;91.04;101610.00;5075784;28;20036;-81
2021/01/17 02:59:11;;;;;;;82.47;40.05;;;;;;;-0.60;90.69;101605.38;5077971;28;20039;-82
2021/01/17 03:01:38;;;;;;;85.65;39.42;;;;;;;-0.62;91.56;101598.53;5078203;28;20029;-81
2021/01/17 03:04:23;;;;;;;88.28;41.67;;;;;;;-0.56;91.49;101601.47;5077868;28;20464;-82
2021/01/17 03:06:49;;;;;;;78.38;39.58;;;;;;;-0.61;91.52;101598.41;5078360;28;20024;-82
2021/01/17 03:09:14;;;;;;;86.90;38.65;;;;;;;-0.60;91.04;101594.75;5077984;28;20440;-81
2021/01/17 03:11:40;;;;;;;84.95;38.17;;;;;;;-0.58;91.64;101590.16;5077957;28;20307;-82
2021/01/17 03:14:06;;;;;;;81.57;39.00;;;;;;;-0.57;91.54;101585.69;5076812;28;20025;-82
2021/01/17 03:16:33;;;;;;;;;;;;;;;-0.50;91.19;101594.75;5077248;28;20441;-81
2021/01/17 03:18:58;;;;;;;78.45;36.63;;;;;;;-0.54;91.22;101590.69;5077207;28;19920;-80
2021/01/17 03:21:23;;;;;;;78.30;37.33;;;;;;;-0.52;92.02;101591.41;5077912;28;20027;-82
2021/01/17 03:23:49;;;;;;;79.43;37.53;;;;;;;-0.53;91.11;101587.09;5077628;28;20024;-82
2021/01/17 03:26:14;;;;;;;82.10;38.10;;;;;;;-0.50;91.57;101589.44;5076736;28;20017;-82
2021/01/17 03:28:39;;;;;;;82.27;38.87;;;;;;;-0.55;91.69;101581.06;5077624;28;20016;-82
2021/01/17 03:31:05;;;;;;;80.10;36.73;;;;;;;-0.50;91.68;101592.09;5077473;28;20074;-82
2021/01/17 03:33:30;;;;;;;81.73;37.23;;;;;;;-0.50;91.49;101584.13;5077562;28;20025;-83
2021/01/17 03:35:55;;;;;;;76.07;38.07;;;;;;;-0.52;92.33;101573.66;5076483;28;20040;-82
2021/01/17 03:38:21;;;;;;;78.70;37.17;;;;;;;-0.50;92.10;101573.50;5077711;28;20024;-83
2021/01/17 03:40:47;;;;;;;80.57;36.20;;;;;;;-0.49;92.36;101577.81;5077210;28;20414;-83
2021/01/17 03:43:12;;;;;;;;;;;;;;;-0.41;92.34;101582.44;5077771;28;20024;-83
2021/01/17 03:45:38;;;;;;;73.05;36.45;;;;;;;-0.47;92.61;101578.53;5077400;28;20608;-82
2021/01/17 03:48:04;;;;;;;72.10;35.20;;;;;;;-0.49;92.79;101580.50;5077348;28;20082;-81
2021/01/17 03:50:29;;;;;;;74.50;35.55;;;;;;;-0.48;92.80;101578.69;5072283;28;20047;-81
2021/01/17 03:52:54;;;;;;;73.60;36.03;;;;;;;-0.47;92.58;101575.88;5075851;28;20047;-81
2021/01/17 03:55:20;;;;;;;71.10;33.53;;;;;;;-0.47;92.84;101577.72;5077301;28;20028;-81
2021/01/17 03:57:45;;;;;;;67.37;33.77;;;;;;;-0.43;92.23;101589.75;5076334;28;20039;-81
2021/01/17 04:00:11;;;;;;;69.03;34.43;;;;;;;-0.41;92.28;101585.09;5077239;28;20099;-81
2021/01/17 04:02:36;;;;;;;70.50;33.55;;;;;;;-0.42;92.27;101581.63;5076452;28;20033;-81
2021/01/17 04:05:02;;;;;;;74.20;33.50;;;;;;;-0.36;93.09;101596.16;5077136;28;20036;-81
2021/01/17 04:07:28;;;;;;;71.35;34.15;;;;;;;-0.38;92.62;101588.34;5077196;28;20125;-82
2021/01/17 04:09:54;;;;;;;62.05;32.15;;;;;;;-0.36;92.74;101586.34;5076978;28;20090;-81
2021/01/17 04:12:19;;;;;;;63.93;32.57;;;;;;;-0.36;92.16;101594.34;5076814;28;20081;-82
2021/01/17 04:14:45;;;;;;;65.20;33.30;;;;;;;-0.37;92.16;101590.00;5076828;28;20277;-81
2021/01/17 04:17:10;;;;;;;56.60;30.80;;;;;;;-0.34;92.92;101589.72;5077104;28;20028;-81
2021/01/17 04:19:35;;;;;;;64.97;31.90;;;;;;;-0.39;92.33;101586.66;5076774;28;20124;-80
2021/01/17 04:22:01;;;;;;;64.20;32.87;;;;;;;-0.34;92.69;101596.84;5075895;28;20031;-81
2021/01/17 04:24:26;;;;;;;57.87;30.67;;;;;;;-0.31;92.74;101599.22;5076166;28;20173;-81
2021/01/17 04:26:59;;;;;;;60.20;31.07;;;;;;;-0.30;92.30;101592.91;5075335;28;20043;-80
2021/01/17 04:29:25;;;;;;;66.93;31.23;;;;;;;-0.28;92.52;101594.47;5076381;28;20032;-80
2021/01/17 04:31:54;;;;;;;67.38;31.30;;;;;;;-0.31;92.72;101583.28;5076478;28;20059;-81
2021/01/17 04:34:22;;;;;;;59.72;30.23;;;;;;;-0.31;92.56;101577.97;5075378;28;20464;-80
2021/01/17 04:36:48;;;;;;;63.75;30.80;;;;;;;-0.29;92.63;101584.81;5074628;28;20369;-80
2021/01/17 04:39:14;;;;;;;61.90;30.48;;;;;;;-0.27;92.41;101587.34;5076463;28;20067;-80
2021/01/17 04:41:42;;;;;;;61.95;30.75;;;;;;;-0.29;92.21;101582.16;5075070;28;20496;-80
2021/01/17 04:44:09;;;;;;;57.20;31.80;;;;;;;-0.26;92.09;101573.06;5075435;28;20033;-80
2021/01/17 04:46:37;;;;;;;60.03;31.10;;;;;;;-0.23;92.28;101582.56;5075094;28;20017;-80
2021/01/17 04:49:06;;;;;;;59.78;30.63;;;;;;;-0.23;93.22;101594.03;5062151;28;20111;-80
2021/01/17 04:51:32;;;;;;;58.05;30.05;;;;;;;-0.22;92.70;101592.22;5075072;28;20037;-80
2021/01/17 04:54:03;;;;;;;58.28;30.83;;;;;;;-0.24;93.00;101580.88;5074594;28;20399;-80
2021/01/17 04:56:30;;;;;;;61.30;29.45;;;;;;;-0.27;92.63;101579.34;5074348;28;20457;-80
2021/01/17 04:59:10;;;;;;;56.75;28.13;;;;;;;-0.19;92.82;101592.78;5075583;28;20384;-80
2021/01/17 05:01:47;;;;;;;56.13;29.73;;;;;;;-0.19;92.74;101592.78;5075754;28;20020;-80
2021/01/17 05:04:40;;;;;;;63.38;31.23;;;;;;;-0.17;92.53;101589.97;5073980;28;20039;-79
2021/01/17 05:07:22;;;;;;;65.18;30.30;;;;;;;-0.17;93.54;101589.97;5074910;28;20056;-80
2021/01/17 05:10:02;;;;;;;59.15;31.10;;;;;;;-0.17;93.37;101590.81;5075151;28;20020;-80
2021/01/17 05:12:36;;;;;;;67.45;31.80;;;;;;;-0.15;92.70;101588.00;5074474;28;20039;-80
2021/01/17 05:15:03;;;;;;;71.35;31.65;;;;;;;-0.16;93.09;101594.31;5075577;28;20406;-80
2021/01/17 05:17:37;;;;;;;68.95;32.03;;;;;;;-0.15;93.12;101588.00;5075460;28;20031;-80
2021/01/17 05:20:03;;;;;;;67.47;31.70;;;;;;;-0.17;92.93;101584.66;5075657;28;20326;-80
2021/01/17 05:22:30;;;;;;;64.28;30.92;;;;;;;-0.16;92.51;101581.00;5075550;28;20035;-79
2021/01/17 05:24:57;;;;;;;70.75;32.50;;;;;;;-0.17;93.49;101582.84;5073659;28;20043;-80
2021/01/17 05:27:23;;;;;;;71.22;32.53;;;;;;;-0.18;93.46;101581.16;5074611;28;20028;-80
2021/01/17 05:29:48;;;;;;;65.17;29.90;;;;;;;-0.15;93.69;101586.19;5073876;28;20127;-80
2021/01/17 05:32:15;;;;;;;70.10;31.73;;;;;;;-0.12;93.49;101587.72;5075539;28;20107;-79
2021/01/17 05:34:42;;;;;;;62.25;29.63;;;;;;;-0.13;93.17;101594.03;5074351;28;20106;-80
2021/01/17 05:37:14;;;;;;;65.60;32.13;;;;;;;-0.10;93.31;101583.09;5074905;28;20024;-80
2021/01/17 05:40:09;;;;;;;70.28;32.58;;;;;;;-0.09;93.40;101580.31;5073685;28;20426;-79
2021/01/17 05:42:40;;;;;;;75.00;33.15;;;;;;;-0.10;93.52;101586.63;5060709;28;20046;-80
2021/01/17 05:45:14;;;;;;;74.95;33.30;;;;;;;-0.08;94.05;101589.13;5075230;28;20056;-80
2021/01/17 05:47:57;;;;;;;74.53;32.38;;;;;;;-0.07;93.87;101593.44;5074439;28;20028;-79
2021/01/17 05:50:24;;;;;;;71.95;34.40;;;;;;;-0.09;94.00;101575.00;5074649;28;20165;-80
2021/01/17 05:53:10;;;;;;;78.35;35.28;;;;;;;-0.06;93.65;101587.16;5073638;28;20068;-79
2021/01/17 05:55:38;;;;;;;83.40;36.03;;;;;;;-0.04;94.49;101590.53;5074089;28;20036;-79
2021/01/17 05:58:26;;;;;;;80.55;36.90;;;;;;;-0.01;93.78;101596.38;5077981;28;20067;-79
2021/01/17 06:00:59;;;;;;;76.07;34.53;;;;;;;-0.03;94.13;101589.53;5077655;28;20028;-79
2021/01/17 06:03:33;;;;;;;91.95;37.55;;;;;;;0.01;94.59;101598.91;5078195;28;20043;-79
2021/01/17 06:06:05;;;;;;;90.57;37.47;;;;;;;-0.02;94.75;101593.84;5079157;28;20024;-80
2021/01/17 06:08:38;;;;;;;99.47;40.95;;;;;;;0.03;95.05;101607.56;5077384;28;20029;-80
2021/01/17 06:11:11;;;;;;;99.07;40.80;;;;;;;0.05;95.12;101607.41;5078015;28;20032;-80
2021/01/17 06:13:42;;;;;;;96.93;38.92;;;;;;;0.06;95.41;101607.28;5077414;28;20036;-80
2021/01/17 06:16:23;;;;;;;119.97;43.95;;;;;;;0.10;94.73;101605.16;5078594;28;20459;-80
2021/01/17 06:18:57;;;;;;;105.03;41.30;;;;;;;0.11;95.01;101609.50;5079141;28;20032;-80
2021/01/17 06:21:27;;;;;;;101.57;41.72;;;;;;;0.09;95.25;101611.47;5077159;28;20139;-80
2021/01/17 06:23:58;;;;;;;111.07;43.90;;;;;;;0.13;95.20;101619.00;5076933;28;20048;-81
2021/01/17 06:26:26;;;;;;;114.28;43.13;;;;;;;0.11;95.64;101613.00;5078195;28;20321;-80
2021/01/17 06:28:52;;;;;;;111.90;43.63;;;;;;;0.17;95.31;101620.41;5078373;28;20024;-81
2021/01/17 06:31:22;;;;;;;117.32;45.28;;;;;;;0.17;95.34;101625.72;5077888;28;20043;-81
2021/01/17 06:33:51;;;;;;;128.93;46.25;;;;;;;0.24;95.78;101620.66;5064427;28;20324;-81
2021/01/17 06:36:16;;;;;;;137.82;49.35;;;;;;;0.28;95.61;101622.03;5077530;28;20052;-81
2021/01/17 06:38:44;;;;;;;143.23;48.15;;;;;;;0.33;95.64;101629.59;5077065;28;20369;-81
2021/01/17 06:41:10;;;;;;;147.73;52.47;;;;;;;0.34;95.99;101628.59;5077216;28;20036;-81
2021/01/17 06:43:40;;;;;;;151.65;51.33;;;;;;;0.41;96.49;101633.22;5092546;28;20468;-81
2021/01/17 06:46:05;;;;;;;138.30;50.42;;;;;;;0.38;96.21;101628.16;5077289;28;20410;-80
2021/01/17 06:48:31;;;;;;;138.82;48.67;;;;;;;0.39;95.87;101626.34;5077700;28;20082;-81
2021/01/17 06:51:20;;;;;;;137.40;49.73;;;;;;;0.45;95.83;101631.09;5077605;28;20021;-82
2021/01/17 06:53:55;;;;;;;132.60;47.75;;;;;;;0.56;96.72;101630.09;5076593;28;20051;-81
2021/01/17 06:56:22;;;;;;;135.52;48.97;;;;;;;0.55;96.34;101629.25;5076787;28;20323;-81
2021/01/17 06:58:50;;;;;;;140.55;48.95;;;;;;;0.60;96.38;101636.78;5076640;28;20024;-79
2021/01/17 07:01:16;;;;;;;138.70;51.10;;;;;;;0.68;96.60;101639.53;5077365;28;20037;-81
2021/01/17 07:03:51;;;;;;;132.80;47.43;;;;;;;0.70;96.63;101643.75;5077048;28;20027;-81
2021/01/17 07:06:52;;;;;;;135.57;48.65;;;;;;;0.71;96.86;101640.09;5077133;28;20414;-81
2021/01/17 07:09:25;;;;;;;132.50;45.30;;;;;;;0.75;96.66;101652.13;5076003;28;20032;-81
2021/01/17 07:12:05;;;;;;;139.93;47.42;;;;;;;0.82;96.78;101651.53;5077602;28;20024;-82
2021/01/17 07:14:39;;;;;;;129.40;45.97;;;;;;;0.82;96.49;101655.03;5075874;28;20169;-82
2021/01/17 07:17:08;;;;;;;130.77;47.42;;;;;;;0.89;96.55;101663.28;5078083;28;20036;-82
2021/01/17 07:19:34;;;;;;;127.82;46.33;;;;;;;0.89;96.12;101661.47;5077224;28;20035;-82
2021/01/17 07:22:06;;;;;;;123.65;46.33;;;;;;;0.92;96.19;101663.81;5076478;28;20330;-81
2021/01/17 07:24:48;;;;;;;144.05;46.28;;;;;;;0.95;96.48;101671.50;5075602;28;20129;-82
2021/01/17 07:27:27;;;;;;;126.15;45.65;;;;;;;0.97;96.48;101666.88;5076045;28;20491;-82
2021/01/17 07:29:58;;;;;;;128.63;45.08;;;;;;;1.01;96.67;101675.41;5076858;28;20433;-82
2021/01/17 07:32:36;;;;;;;116.10;44.30;;;;;;;1.08;96.71;101692.50;5077874;28;20031;-82
2021/01/17 07:35:10;;;;;;;131.85;46.22;;;;;;;1.12;96.89;101693.84;5075979;28;20107;-82
2021/01/17 07:37:41;;;;;;;128.23;44.67;;;;;;;1.18;97.20;101693.28;5076752;28;20027;-82
2021/01/17 07:40:08;;;;;;;125.35;44.38;;;;;;;1.18;96.51;101685.28;5076634;28;20036;-81
2021/01/17 07:42:37;;;;;;;126.53;42.65;;;;;;;1.22;96.33;101693.78;5076671;28;20401;-82
2021/01/17 07:45:15;;;;;;;110.05;41.22;;;;;;;1.24;95.73;101700.66;5076619;28;20021;-82
2021/01/17 07:47:45;;;;;;;115.18;41.17;;;;;;;1.30;96.74;101709.88;5076967;28;20019;-82
2021/01/17 07:50:14;;;;;;;117.07;41.97;;;;;;;1.32;97.11;101705.25;5076406;28;20037;-81
2021/01/17 07:52:52;;;;;;;110.60;40.50;;;;;;;1.39;96.05;101708.16;5076511;28;20027;-81
2021/01/17 07:55:20;;;;;;;121.18;40.53;;;;;;;1.42;96.02;101718.53;5076268;28;20032;-81
2021/01/17 07:57:50;;;;;;;111.53;39.22;;;;;;;1.40;96.38;101715.16;5076153;28;20097;-81
2021/01/17 08:00:24;;;;;;;110.35;39.90;;;;;;;1.43;96.40;101718.38;5092879;28;20131;-81
2021/01/17 08:02:49;;;;;;;108.93;38.33;;;;;;;1.49;96.39;101724.91;5076261;28;20025;-81
2021/01/17 08:05:47;;;;;;;110.73;37.10;;;;;;;1.55;96.45;101725.16;5076920;28;20040;-81
2021/01/17 08:08:34;;;;;;;106.95;34.55;;;;;;;1.67;96.85;101733.78;5075839;28;20444;-81
2021/01/17 08:11:03;;;;;;;109.10;34.85;;;;;;;1.75;96.74;101731.19;5076097;28;20062;-80
2021/01/17 08:13:34;;;;;;;101.68;33.53;;;;;;;1.88;97.07;101741.47;5076846;28;20441;-81
2021/01/17 08:16:11;;;;;;;100.90;31.80;;;;;;;2.00;97.67;101748.28;5076137;28;20031;-79
2021/01/17 08:18:38;;;;;;;90.35;29.27;;;;;;;2.03;97.22;101744.44;5069677;28;20030;-80
2021/01/17 08:21:33;;;;;;;96.60;31.05;;;;;;;2.06;96.77;101754.84;5076248;28;20020;-81
2021/01/17 08:24:11;;;;;;;90.65;27.10;;;;;;;2.10;96.74;101750.88;5068098;28;20036;-80
2021/01/17 08:26:59;;;;;;;78.53;27.58;;;;;;;2.17;96.79;101751.09;5076822;28;20027;-79
2021/01/17 08:29:25;;;;;;;83.25;23.70;;;;;;;2.20;96.33;101761.47;5075921;28;20066;-79
2021/01/17 08:31:50;;;;;;;75.80;24.92;;;;;;;2.26;96.55;101767.00;5075932;28;20024;-79
2021/01/17 08:34:23;;;;;;;82.47;23.57;;;;;;;2.29;96.54;101773.84;5074733;28;20086;-79
2021/01/17 08:36:48;;;;;;;82.57;24.77;;;;;;;2.29;96.56;101774.72;5075944;28;20028;-79
2021/01/17 08:39:13;;;;;;;76.37;24.73;;;;;;;2.29;96.21;101777.38;5075355;28;20406;-78
2021/01/17 08:41:40;;;;;;;79.37;24.67;;;;;;;2.31;96.25;101782.56;5075513;28;20025;-79
2021/01/17 08:44:08;;;;;;;;;;;;;;;2.33;95.87;101788.56;5076210;28;20108;-79
2021/01/17 08:46:35;;;;;;;80.97;27.50;;;;;;;2.28;95.66;101786.38;5076445;28;19945;-79
2021/01/17 08:49:01;;;;;;;68.85;26.23;;;;;;;2.31;95.16;101796.75;5075024;28;20039;-80
2021/01/17 08:51:29;;;;;;;90.35;30.27;;;;;;;2.28;95.44;101789.03;5075845;28;20025;-78
2021/01/17 08:53:55;;;;;;;79.47;27.92;;;;;;;2.27;95.11;101792.69;5074406;28;20028;-79
2021/01/17 08:56:23;;;;;;;92.05;27.55;;;;;;;2.29;95.22;101798.75;5074441;28;20048;-77
2021/01/17 08:58:55;;;;;;;81.22;28.13;;;;;;;2.27;95.74;101795.38;5074844;28;20047;-79
2021/01/17 09:01:22;;;;;;;78.95;27.13;;;;;;;2.21;95.13;101790.66;5075812;28;20020;-77
2021/01/17 09:03:54;;;;;;;84.20;26.55;;;;;;;2.25;95.79;101804.53;5075929;28;20429;-78
2021/01/17 09:06:19;;;;;;;77.55;26.70;;;;;;;2.24;95.34;101805.50;5075618;28;20061;-79
2021/01/17 09:08:47;;;;;;;95.27;28.63;;;;;;;2.25;95.51;101812.53;5075388;28;20024;-78
2021/01/17 09:11:28;;;;;;;80.82;28.23;;;;;;;2.27;95.49;101815.88;5073673;28;20421;-79
2021/01/17 09:14:22;;;;;;;84.80;28.55;;;;;;;2.28;95.86;101815.72;5075173;28;20036;-81
2021/01/17 09:16:53;;;;;;;72.82;26.55;;;;;;;2.26;95.14;101819.56;5075533;28;20329;-79
2021/01/17 09:19:30;;;;;;;75.78;25.73;;;;;;;2.33;95.39;101823.28;5074992;28;20295;-79
2021/01/17 09:22:06;;;;;;;;;;;;;;;2.40;95.49;101828.84;5075527;28;20016;-77
2021/01/17 09:24:38;;;;;;;78.63;25.40;;;;;;;2.37;95.34;101830.00;5073697;28;19975;-77
2021/01/17 09:27:06;;;;;;;90.18;26.63;;;;;;;2.39;95.51;101837.84;5074864;28;20322;-78
2021/01/17 09:29:41;;;;;;;80.63;25.55;;;;;;;2.49;95.25;101839.47;5075140;28;20028;-78
2021/01/17 09:32:15;;;;;;;76.13;25.00;;;;;;;2.52;95.57;101840.97;5074128;28;20108;-77
2021/01/17 09:34:45;;;;;;;79.68;26.55;;;;;;;2.55;95.35;101843.34;5067464;28;20140;-74
2021/01/17 09:37:13;;;;;;;73.10;23.88;;;;;;;2.56;95.10;101848.50;5074552;28;20533;-76
2021/01/17 09:39:42;;;;;;;77.90;23.27;;;;;;;2.53;95.45;101848.81;5072929;28;20127;-76
2021/01/17 09:42:26;;;;;;;82.05;23.13;;;;;;;2.66;95.06;101856.44;5074591;28;20325;-75
2021/01/17 09:44:53;;;;;;;63.55;22.17;;;;;;;2.68;94.84;101865.13;5075042;28;20307;-78
2021/01/17 09:47:20;;;;;;;72.93;21.92;;;;;;;2.69;94.93;101863.31;5074978;28;20023;-75
2021/01/17 09:49:49;;;;;;;80.72;24.20;;;;;;;2.72;95.40;101869.16;5075117;28;20078;-76
2021/01/17 09:52:16;;;;;;;70.82;21.20;;;;;;;2.71;95.61;101861.31;5074610;28;20460;-75
2021/01/17 09:54:41;;;;;;;74.18;22.98;;;;;;;2.69;95.63;101869.50;5074053;28;20033;-75
2021/01/17 09:57:15;;;;;;;61.63;20.33;;;;;;;2.69;95.97;101880.19;5074371;28;20104;-78
2021/01/17 09:59:41;;;;;;;66.25;19.95;;;;;;;2.74;95.93;101880.56;5073275;28;20089;-77
2021/01/17 10:02:06;;;;;;;65.85;20.15;;;;;;;2.89;96.43;101890.69;5075182;28;20405;-74
2021/01/17 10:04:32;;;;;;;64.27;19.83;;;;;;;3.00;95.56;101899.28;5074802;28;20034;-77
2021/01/17 10:06:58;;;;;;;81.47;19.50;;;;;;;3.18;95.39;101901.09;5074910;28;20052;-76
2021/01/17 10:09:26;;;;;;;73.85;19.70;;;;;;;3.29;95.43;101904.34;5073058;28;20275;-75
2021/01/17 10:11:56;;;;;;;54.15;17.67;;;;;;;3.37;95.16;101900.88;5073205;28;20047;-74
2021/01/17 10:14:24;;;;;;;55.78;16.27;;;;;;;3.53;94.59;101900.13;5073817;28;20032;-75
2021/01/17 10:16:54;;;;;;;61.20;16.83;;;;;;;3.63;94.09;101908.03;5074445;28;20060;-77
2021/01/17 10:19:29;;;;;;;64.10;17.58;;;;;;;3.81;94.87;101912.31;5073276;28;20047;-76
2021/01/17 10:21:56;;;;;;;58.90;15.98;;;;;;;4.27;93.05;101904.75;5060665;28;20043;-83
2021/01/17 10:24:26;;;;;;;52.28;14.73;;;;;;;6.05;86.38;101907.44;5072905;28;20417;-89
2021/01/17 10:30:18;;;;;;;45.83;11.43;;;;;;;5.73;83.14;101904.88;5113133;27;20411;-69
2021/01/17 10:32:45;;;;;;;39.30;10.77;;;;;;;5.16;84.40;101912.00;5111614;28;20111;-77
2021/01/17 10:35:10;;;;;;;42.10;10.63;;;;;;;4.83;86.18;101921.94;5108972;28;20031;-76
2021/01/17 10:37:37;;;;;;;32.25;9.13;;;;;;;4.59;88.01;101925.44;5103676;28;20351;-73
2021/01/17 10:40:03;;;;;;;51.20;12.25;;;;;;;4.49;88.86;101935.47;5096552;28;20036;-71
2021/01/17 10:42:31;;;;;;;42.35;11.65;;;;;;;4.42;89.76;101934.44;5112513;28;20572;-74
2021/01/17 10:45:02;;;;;;;46.83;11.63;;;;;;;4.39;90.62;101929.38;5109463;28;20422;-73
2021/01/17 10:47:39;;;;;;;41.00;10.85;;;;;;;4.46;89.82;101933.09;5110564;28;20032;-76
2021/01/17 10:50:12;;;;;;;45.70;11.52;;;;;;;4.50;90.33;101929.09;5095045;28;20429;-75
2021/01/17 10:52:44;;;;;;;51.47;11.63;;;;;;;4.53;90.19;101931.44;5112566;28;20328;-73
2021/01/17 10:55:13;;;;;;;48.63;11.02;;;;;;;4.53;90.21;101930.59;5108799;28;20027;-75
2021/01/17 10:57:41;;;;;;;56.67;12.60;;;;;;;4.49;90.95;101932.78;5105845;28;20042;-75
2021/01/17 11:00:08;;;;;;;52.47;11.15;;;;;;;4.49;91.08;101937.28;5105382;28;20032;-73
2021/01/17 11:02:34;;;;;;;47.38;11.65;;;;;;;4.44;91.03;101939.59;5112286;28;20061;-72
2021/01/17 11:04:59;;;;;;;42.85;10.80;;;;;;;4.35;91.62;101942.28;5104613;28;20023;-71
2021/01/17 11:07:27;;;;;;;52.00;10.67;;;;;;;4.39;92.13;101945.44;5109838;28;20214;-75
2021/01/17 11:09:54;;;;;;;51.78;10.93;;;;;;;4.42;92.40;101939.78;5096683;28;20427;-72
2021/01/17 11:12:37;;;;;;;52.70;11.43;;;;;;;4.57;92.38;101946.16;5103586;28;20038;-73
2021/01/17 11:15:12;;;;;;;63.80;12.35;;;;;;;4.74;91.89;101944.38;5102811;28;20443;-75
2021/01/17 11:17:38;;;;;;;48.03;11.07;;;;;;;4.86;90.89;101947.56;5111658;28;20027;-76
2021/01/17 11:20:07;;;;;;;56.23;11.93;;;;;;;4.99;90.62;101947.91;5101535;28;20371;-74
2021/01/17 11:22:33;;;;;;;47.63;10.60;;;;;;;5.01;90.69;101945.03;5112680;28;20024;-74
2021/01/17 11:24:58;;;;;;;60.05;10.68;;;;;;;5.05;89.72;101955.25;5102419;28;20040;-74
2021/01/17 11:27:33;;;;;;;56.47;12.17;;;;;;;5.10;90.64;101949.41;5111841;28;20107;-74